createdAt,value
2018-09-06T00:01:43.757Z,98744.39
2018-09-06T00:04:12.032Z,98744.54
2018-09-06T00:06:40.370Z,98741.25
2018-09-06T00:09:09.458Z,98750.73
2018-09-06T00:11:37.785Z,98747.08
2018-09-06T00:14:06.102Z,98741.86
2018-09-06T00:16:34.424Z,98742.38
2018-09-06T00:19:02.690Z,98733.18
2018-09-06T00:21:30.990Z,98733.38
2018-09-06T00:23:59.242Z,98731.80
2018-09-06T00:26:27.551Z,98727.48
2018-09-06T00:28:55.902Z,98735.17
2018-09-06T00:31:24.137Z,98732.20
2018-09-06T00:33:52.433Z,98729.39
2018-09-06T00:36:20.691Z,98731.06
2018-09-06T00:38:48.983Z,98729.64
2018-09-06T00:41:17.250Z,98730.88
2018-09-06T00:43:45.581Z,98726.42
2018-09-06T00:46:13.877Z,98726.03
2018-09-06T00:48:42.183Z,98720.52
2018-09-06T00:51:10.449Z,98720.18
2018-09-06T00:53:38.709Z,98725.30
2018-09-06T00:56:07.014Z,98715.53
2018-09-06T00:58:35.298Z,98715.33
2018-09-06T01:01:03.637Z,98712.48
2018-09-06T01:03:31.937Z,98703.11
2018-09-06T01:06:00.220Z,98707.33
2018-09-06T01:08:28.475Z,98704.11
2018-09-06T01:10:56.812Z,98698.11
2018-09-06T01:13:25.113Z,98695.06
2018-09-06T01:15:53.391Z,98696.13
2018-09-06T01:18:21.726Z,98693.18
2018-09-06T01:20:50.064Z,98688.66
2018-09-06T01:23:18.340Z,98686.48
2018-09-06T01:25:48.920Z,98683.05
2018-09-06T01:28:18.505Z,98684.83
2018-09-06T01:30:46.781Z,98676.19
2018-09-06T01:33:15.051Z,98673.88
2018-09-06T01:35:47.515Z,98675.02
2018-09-06T01:38:15.958Z,98670.58
2018-09-06T01:40:44.288Z,98668.99
2018-09-06T01:43:12.555Z,98667.34
2018-09-06T01:45:40.807Z,98670.05
2018-09-06T01:48:09.084Z,98670.16
2018-09-06T01:50:37.341Z,98667.52
2018-09-06T01:53:05.741Z,98665.18
2018-09-06T01:55:34.035Z,98664.85
2018-09-06T01:58:02.313Z,98657.52
2018-09-06T02:00:30.712Z,98663.44
2018-09-06T02:02:58.981Z,98659.00
2018-09-06T02:05:35.500Z,98654.84
2018-09-06T02:08:04.674Z,98656.94
2018-09-06T02:10:33.040Z,98651.54
2018-09-06T02:13:01.444Z,98650.99
2018-09-06T02:15:29.771Z,98651.19
2018-09-06T02:17:58.119Z,98652.30
2018-09-06T02:20:26.431Z,98649.98
2018-09-06T02:22:55.102Z,98645.55
2018-09-06T02:25:23.404Z,98643.93
2018-09-06T02:27:51.764Z,98646.05
2018-09-06T02:30:20.038Z,98642.59
2018-09-06T02:32:48.392Z,98646.62
2018-09-06T02:35:16.706Z,98637.85
2018-09-06T02:37:44.974Z,98640.59
2018-09-06T02:40:18.661Z,98633.31
2018-09-06T02:42:46.948Z,98641.38
2018-09-06T02:45:15.283Z,98632.80
2018-09-06T02:47:48.655Z,98623.91
2018-09-06T02:50:22.133Z,98629.30
2018-09-06T02:52:50.428Z,98620.41
2018-09-06T02:55:18.754Z,98618.23
2018-09-06T02:57:47.206Z,98618.47
2018-09-06T03:00:15.459Z,98621.94
2018-09-06T03:02:43.773Z,98623.16
2018-09-06T03:05:12.082Z,98622.91
2018-09-06T03:07:40.372Z,98622.09
2018-09-06T03:10:08.758Z,98615.13
2018-09-06T03:12:37.039Z,98608.12
2018-09-06T03:15:05.304Z,98611.47
2018-09-06T03:17:33.601Z,98608.77
2018-09-06T03:20:01.880Z,98610.42
2018-09-06T03:22:30.166Z,98607.94
2018-09-06T03:24:58.437Z,98608.28
2018-09-06T03:27:26.712Z,98616.48
2018-09-06T03:29:54.971Z,98610.36
2018-09-06T03:32:23.357Z,98606.68
2018-09-06T03:34:51.644Z,98609.62
2018-09-06T03:37:19.930Z,98610.06
2018-09-06T03:39:48.222Z,98599.69
2018-09-06T03:42:16.520Z,98600.34
2018-09-06T03:44:44.767Z,98595.38
2018-09-06T03:47:13.063Z,98598.09
2018-09-06T03:49:41.298Z,98593.77
2018-09-06T03:52:10.544Z,98588.49
2018-09-06T03:54:38.781Z,98593.51
2018-09-06T03:57:07.498Z,98591.51
2018-09-06T03:59:35.969Z,98597.44
2018-09-06T04:02:04.347Z,98594.24
2018-09-06T04:04:32.602Z,98598.78
2018-09-06T04:07:01.016Z,98601.64
2018-09-06T04:09:29.253Z,98597.28
2018-09-06T04:11:57.555Z,98592.81
2018-09-06T04:14:25.874Z,98591.95
2018-09-06T04:16:54.141Z,98586.61
2018-09-06T04:19:22.454Z,98590.62
2018-09-06T04:21:50.764Z,98587.45
2018-09-06T04:24:19.204Z,98580.53
2018-09-06T04:26:47.499Z,98583.92
2018-09-06T04:29:15.870Z,98581.73
2018-09-06T04:31:44.170Z,98580.22
2018-09-06T04:34:12.583Z,98577.58
2018-09-06T04:36:41.163Z,98576.68
2018-09-06T04:39:11.218Z,98579.95
2018-09-06T04:41:39.623Z,98579.45
2018-09-06T04:44:07.976Z,98574.78
2018-09-06T04:46:36.580Z,98574.97
2018-09-06T04:49:05.096Z,98582.71
2018-09-06T04:51:33.423Z,98579.20
2018-09-06T04:54:01.774Z,98575.05
2018-09-06T04:56:33.166Z,98575.88
2018-09-06T04:59:01.500Z,98572.78
2018-09-06T05:01:29.915Z,98570.09
2018-09-06T05:03:58.370Z,98562.48
2018-09-06T05:06:26.755Z,98562.81
2018-09-06T05:08:55.036Z,98560.74
2018-09-06T05:11:23.396Z,98568.65
2018-09-06T05:13:51.882Z,98568.55
2018-09-06T05:16:20.619Z,98567.28
2018-09-06T05:18:48.992Z,98567.81
2018-09-06T05:21:18.345Z,98567.03
2018-09-06T05:23:47.577Z,98570.41
2018-09-06T05:26:15.936Z,98566.41
2018-09-06T05:28:44.255Z,98568.50
2018-09-06T05:31:12.567Z,98564.48
2018-09-06T05:33:40.967Z,98571.42
2018-09-06T05:36:09.451Z,98566.55
2018-09-06T05:38:38.003Z,98562.63
2018-09-06T05:41:06.745Z,98564.49
2018-09-06T05:43:35.072Z,98554.98
2018-09-06T05:46:03.422Z,98563.47
2018-09-06T05:48:31.771Z,98563.13
2018-09-06T05:51:00.068Z,98558.17
2018-09-06T05:53:28.437Z,98554.22
2018-09-06T05:55:56.827Z,98552.09
2018-09-06T05:58:25.266Z,98550.12
2018-09-06T06:00:53.634Z,98552.03
2018-09-06T06:03:22.127Z,98550.86
2018-09-06T06:05:50.437Z,98545.68
2018-09-06T06:08:30.082Z,98543.51
2018-09-06T06:10:58.427Z,98548.36
2018-09-06T06:13:26.824Z,98545.67
2018-09-06T06:15:55.328Z,98549.70
2018-09-06T06:18:23.617Z,98545.32
2018-09-06T06:20:52.110Z,98548.31
2018-09-06T06:23:20.429Z,98544.09
2018-09-06T06:25:48.840Z,98538.33
2018-09-06T06:28:17.213Z,98540.41
2018-09-06T06:30:45.530Z,98529.06
2018-09-06T06:33:14.027Z,98534.02
2018-09-06T06:35:42.331Z,98529.73
2018-09-06T06:38:10.760Z,98532.13
2018-09-06T06:40:39.088Z,98526.33
2018-09-06T06:43:08.262Z,98529.36
2018-09-06T06:45:37.009Z,98523.18
2018-09-06T06:48:05.529Z,98526.54
2018-09-06T06:50:33.912Z,98522.53
2018-09-06T06:53:02.323Z,98521.33
2018-09-06T06:55:30.789Z,98508.69
2018-09-06T06:57:59.099Z,98509.58
2018-09-06T07:00:27.434Z,98510.11
2018-09-06T07:02:55.738Z,98507.81
2018-09-06T07:05:24.063Z,98513.11
2018-09-06T07:07:52.362Z,98495.58
2018-09-06T07:10:20.694Z,98498.30
2018-09-06T07:12:48.982Z,98497.41
2018-09-06T07:15:17.316Z,98499.02
2018-09-06T07:17:45.620Z,98495.69
2018-09-06T07:20:13.921Z,98499.42
2018-09-06T07:22:42.293Z,98499.67
2018-09-06T07:25:10.651Z,98501.04
2018-09-06T07:27:38.932Z,98500.27
2018-09-06T07:30:07.356Z,98504.30
2018-09-06T07:32:35.822Z,98496.86
2018-09-06T07:35:04.397Z,98499.12
2018-09-06T07:37:33.788Z,98493.83
2018-09-06T07:40:02.233Z,98494.91
2018-09-06T07:42:30.522Z,98493.86
2018-09-06T07:44:58.888Z,98488.75
2018-09-06T07:47:27.242Z,98481.09
2018-09-06T07:49:55.628Z,98479.34
2018-09-06T07:52:23.965Z,98481.21
2018-09-06T07:54:52.575Z,98483.37
2018-09-06T07:57:20.876Z,98483.80
2018-09-06T07:59:49.394Z,98481.84
2018-09-06T08:02:17.715Z,98477.96
2018-09-06T08:04:46.043Z,98480.05
2018-09-06T08:07:14.363Z,98482.12
2018-09-06T08:09:42.655Z,98487.44
2018-09-06T08:12:10.977Z,98489.00
2018-09-06T08:14:39.314Z,98483.69
2018-09-06T08:17:07.927Z,98489.27
2018-09-06T08:19:36.379Z,98487.86
2018-09-06T08:22:04.702Z,98482.66
2018-09-06T08:24:33.023Z,98486.34
2018-09-06T08:27:01.325Z,98484.98
2018-09-06T08:29:29.650Z,98481.44
2018-09-06T08:31:57.935Z,98481.12
2018-09-06T08:34:26.239Z,98481.06
2018-09-06T08:36:54.607Z,98471.47
2018-09-06T08:39:22.883Z,98468.58
2018-09-06T08:41:51.251Z,98465.28
2018-09-06T08:44:19.617Z,98468.72
2018-09-06T08:46:48.118Z,98467.88
2018-09-06T08:49:16.407Z,98470.36
2018-09-06T08:51:44.774Z,98466.91
2018-09-06T08:54:13.053Z,98459.61
2018-09-06T08:56:41.389Z,98459.19
2018-09-06T08:59:09.786Z,98454.67
2018-09-06T09:01:38.458Z,98456.94
2018-09-06T09:04:07.370Z,98455.80
2018-09-06T09:06:35.905Z,98458.26
2018-09-06T09:09:05.785Z,98451.74
2018-09-06T09:11:34.262Z,98451.42
2018-09-06T09:14:02.535Z,98453.45
2018-09-06T09:16:30.867Z,98449.89
2018-09-06T09:18:59.180Z,98450.76
2018-09-06T09:21:27.550Z,98443.73
2018-09-06T09:23:55.825Z,98447.11
2018-09-06T09:26:24.150Z,98443.73
2018-09-06T09:28:52.466Z,98441.57
2018-09-06T09:31:20.780Z,98442.86
2018-09-06T09:33:49.257Z,98439.16
2018-09-06T09:36:17.588Z,98430.55
2018-09-06T09:38:45.905Z,98435.66
2018-09-06T09:41:14.294Z,98429.47
2018-09-06T09:43:42.930Z,98428.22
2018-09-06T09:48:39.119Z,98426.46
2018-09-06T09:51:07.441Z,98421.55
2018-09-06T09:53:35.729Z,98419.45
2018-09-06T09:56:04.576Z,98414.16
2018-09-06T09:58:32.936Z,98411.00
2018-09-06T10:01:01.438Z,98405.91
2018-09-06T10:03:35.040Z,98400.69
2018-09-06T10:06:08.806Z,98394.05
2018-09-06T10:08:42.592Z,98384.81
2018-09-06T10:11:11.295Z,98379.88
2018-09-06T10:13:39.618Z,98382.56
2018-09-06T10:16:08.173Z,98377.52
2018-09-06T10:18:36.500Z,98378.28
2018-09-06T10:21:04.971Z,98375.72
2018-09-06T10:23:33.403Z,98369.37
2018-09-06T10:26:01.745Z,98370.23
2018-09-06T10:28:30.103Z,98372.70
2018-09-06T10:30:58.483Z,98371.64
2018-09-06T10:33:26.837Z,98368.31
2018-09-06T10:35:55.245Z,98363.27
2018-09-06T10:38:23.595Z,98367.66
2018-09-06T10:40:51.931Z,98357.61
2018-09-06T10:43:20.265Z,98349.67
2018-09-06T10:45:48.558Z,98346.67
2018-09-06T10:48:17.178Z,98344.75
2018-09-06T10:50:45.587Z,98341.43
2018-09-06T10:53:14.263Z,98338.77
2018-09-06T10:55:42.570Z,98334.24
2018-09-06T10:58:10.929Z,98334.72
2018-09-06T11:00:39.303Z,98330.91
2018-09-06T11:03:07.851Z,98325.46
2018-09-06T11:05:36.180Z,98331.01
2018-09-06T11:08:04.592Z,98327.16
2018-09-06T11:10:32.845Z,98323.34
2018-09-06T11:13:01.159Z,98320.30
2018-09-06T11:15:29.869Z,98316.25
2018-09-06T11:17:58.459Z,98318.05
2018-09-06T11:20:26.744Z,98325.00
2018-09-06T11:22:55.061Z,98313.47
2018-09-06T11:25:23.306Z,98323.52
2018-09-06T11:27:53.305Z,98314.30
2018-09-06T11:30:23.788Z,98307.71
2018-09-06T11:32:52.235Z,98307.13
2018-09-06T11:35:20.577Z,98301.13
2018-09-06T11:37:49.071Z,98297.65
2018-09-06T11:40:17.401Z,98298.72
2018-09-06T11:42:45.724Z,98296.04
2018-09-06T11:45:14.014Z,98303.34
2018-09-06T11:47:42.332Z,98299.73
2018-09-06T11:50:10.636Z,98298.08
2018-09-06T11:52:38.930Z,98295.78
2018-09-06T11:55:07.290Z,98289.41
2018-09-06T11:57:35.584Z,98294.47
2018-09-06T12:00:04.017Z,98302.02
2018-09-06T12:02:32.320Z,98293.59
2018-09-06T12:05:00.670Z,98288.23
2018-09-06T12:07:28.980Z,98290.42
2018-09-06T12:09:57.385Z,98286.79
2018-09-06T12:12:25.707Z,98285.98
2018-09-06T12:14:54.050Z,98284.49
2018-09-06T12:17:22.476Z,98280.69
2018-09-06T12:19:51.018Z,98277.76
2018-09-06T12:22:19.283Z,98269.92
2018-09-06T12:24:47.593Z,98270.49
2018-09-06T12:27:15.844Z,98268.50
2018-09-06T12:29:44.259Z,98258.81
2018-09-06T12:32:12.647Z,98266.09
2018-09-06T12:34:41.109Z,98264.11
2018-09-06T12:37:13.067Z,98264.98
2018-09-06T12:39:42.628Z,98260.92
2018-09-06T12:42:11.559Z,98256.31
2018-09-06T12:44:40.022Z,98261.66
2018-09-06T12:47:08.377Z,98252.86
2018-09-06T12:49:36.816Z,98247.15
2018-09-06T12:52:05.094Z,98247.59
2018-09-06T12:54:33.850Z,98242.94
2018-09-06T12:57:02.153Z,98244.86
2018-09-06T12:59:30.549Z,98235.12
2018-09-06T13:02:00.074Z,98237.30
2018-09-06T13:04:28.437Z,98232.84
2018-09-06T13:06:56.938Z,98235.38
2018-09-06T13:09:25.232Z,98226.98
2018-09-06T13:11:54.000Z,98233.50
2018-09-06T13:14:22.553Z,98225.41
2018-09-06T13:16:51.001Z,98221.26
2018-09-06T13:19:19.435Z,98214.91
2018-09-06T13:21:47.708Z,98210.13
2018-09-06T13:24:16.062Z,98205.25
2018-09-06T13:26:44.356Z,98214.81
2018-09-06T13:29:12.669Z,98208.86
2018-09-06T13:31:41.057Z,98204.09
2018-09-06T13:34:09.384Z,98203.82
2018-09-06T13:36:37.699Z,98204.42
2018-09-06T13:39:07.677Z,98205.88
2018-09-06T13:41:42.328Z,98210.23
2018-09-06T13:44:10.609Z,98213.77
2018-09-06T13:46:39.520Z,98203.86
2018-09-06T13:49:07.809Z,98201.02
2018-09-06T13:51:36.109Z,98198.12
2018-09-06T13:54:04.359Z,98196.88
2018-09-06T13:56:32.760Z,98189.15
2018-09-06T13:59:01.009Z,98190.84
2018-09-06T14:01:29.380Z,98178.79
2018-09-06T14:03:57.702Z,98168.50
2018-09-06T14:06:26.069Z,98166.11
2018-09-06T14:08:54.404Z,98168.26
2018-09-06T14:11:22.756Z,98163.17
2018-09-06T14:13:51.028Z,98158.45
2018-09-06T14:16:19.336Z,98156.47
2018-09-06T14:18:47.701Z,98157.37
2018-09-06T14:21:16.844Z,98166.54
2018-09-06T14:23:46.152Z,98166.45
2018-09-06T14:26:35.374Z,98155.95
2018-09-06T14:31:48.472Z,98149.75
2018-09-06T14:34:16.767Z,98153.20
2018-09-06T14:36:45.170Z,98158.61
2018-09-06T14:39:13.492Z,98170.73
2018-09-06T14:41:41.940Z,98177.16
2018-09-06T14:44:10.467Z,98187.43
2018-09-06T14:46:47.589Z,98201.87
2018-09-06T14:49:15.967Z,98222.04
2018-09-06T14:51:44.295Z,98230.44
2018-09-06T14:54:12.568Z,98245.89
2018-09-06T14:56:40.877Z,98245.89
2018-09-06T14:59:09.266Z,98254.77
2018-09-06T15:01:37.784Z,98264.80
2018-09-06T15:04:06.188Z,98269.82
2018-09-06T15:06:35.151Z,98274.03
2018-09-06T15:09:05.408Z,98275.12
2018-09-06T15:11:33.790Z,98286.80
2018-09-06T15:14:02.600Z,98287.98
2018-09-06T15:16:30.995Z,98290.50
2018-09-06T15:19:01.700Z,98295.08
2018-09-06T15:21:36.952Z,98307.86
2018-09-06T15:24:05.476Z,98316.69
2018-09-06T15:26:34.009Z,98330.06
2018-09-06T15:29:05.162Z,98328.61
2018-09-06T15:31:34.495Z,98333.38
2018-09-06T15:34:02.962Z,98336.09
2018-09-06T15:36:31.451Z,98330.98
2018-09-06T15:39:00.033Z,98324.87
2018-09-06T15:41:28.979Z,98321.28
2018-09-06T15:43:57.466Z,98313.98
2018-09-06T15:46:25.815Z,98307.36
2018-09-06T15:48:57.133Z,98308.67
2018-09-06T15:51:26.273Z,98311.08
2018-09-06T15:53:54.957Z,98317.95
2018-09-06T15:56:23.259Z,98320.63
2018-09-06T15:58:51.759Z,98315.02
2018-09-06T16:01:20.815Z,98324.75
2018-09-06T16:03:50.457Z,98329.55
2018-09-06T16:06:18.902Z,98324.92
2018-09-06T16:08:47.296Z,98326.44
2018-09-06T16:11:16.104Z,98326.13
2018-09-06T16:13:44.562Z,98323.42
2018-09-06T16:16:13.422Z,98317.84
2018-09-06T16:18:42.023Z,98309.83
2018-09-06T16:21:11.547Z,98300.60
2018-09-06T16:23:40.018Z,98294.02
2018-09-06T16:26:08.603Z,98293.13
2018-09-06T16:28:36.934Z,98284.59
2018-09-06T16:31:05.320Z,98279.89
2018-09-06T16:33:34.280Z,98265.20
2018-09-06T16:36:03.022Z,98262.95
2018-09-06T16:38:31.909Z,98259.62
2018-09-06T16:41:00.669Z,98264.13
2018-09-06T16:43:29.235Z,98260.72
2018-09-06T16:45:58.009Z,98260.50
2018-09-06T16:48:26.504Z,98258.43
2018-09-06T16:50:55.057Z,98253.88
2018-09-06T16:53:24.464Z,98259.68
2018-09-06T16:55:53.239Z,98258.33
2018-09-06T16:58:21.761Z,98257.47
2018-09-06T17:00:50.404Z,98253.34
2018-09-06T17:03:18.823Z,98246.28
2018-09-06T17:05:47.721Z,98241.58
2018-09-06T17:08:16.112Z,98235.25
2018-09-06T17:10:44.495Z,98228.09
2018-09-06T17:13:12.950Z,98222.27
2018-09-06T17:15:41.488Z,98227.97
2018-09-06T17:18:09.887Z,98232.04
2018-09-06T17:20:38.240Z,98234.02
2018-09-06T17:23:07.064Z,98233.12
2018-09-06T17:25:35.402Z,98237.42
2018-09-06T17:28:04.351Z,98238.90
2018-09-06T17:30:32.968Z,98241.59
2018-09-06T17:33:01.449Z,98241.86
2018-09-06T17:35:29.971Z,98234.27
2018-09-06T17:37:58.432Z,98238.58
2018-09-06T17:40:26.926Z,98239.16
2018-09-06T17:42:55.762Z,98243.67
2018-09-06T17:45:24.178Z,98244.88
2018-09-06T17:47:52.909Z,98244.24
2018-09-06T17:50:21.681Z,98243.47
2018-09-06T17:52:50.135Z,98239.73
2018-09-06T17:55:18.595Z,98231.41
2018-09-06T17:57:46.953Z,98237.10
2018-09-06T18:00:15.939Z,98238.52
2018-09-06T18:02:44.389Z,98243.66
2018-09-06T18:05:12.873Z,98241.36
2018-09-06T18:07:41.254Z,98235.36
2018-09-06T18:10:09.700Z,98245.66
2018-09-06T18:12:38.251Z,98244.91
2018-09-06T18:15:07.932Z,98246.57
2018-09-06T18:17:36.402Z,98237.61
2018-09-06T18:20:05.214Z,98237.45
2018-09-06T18:22:33.687Z,98225.08
2018-09-06T18:25:02.704Z,98221.25
2018-09-06T18:27:31.635Z,98221.42
2018-09-06T18:30:00.221Z,98224.06
2018-09-06T18:32:28.707Z,98216.34
2018-09-06T18:34:57.163Z,98221.41
2018-09-06T18:37:25.733Z,98227.53
2018-09-06T18:39:54.045Z,98224.43
2018-09-06T18:42:23.681Z,98221.87
2018-09-06T18:44:52.152Z,98220.38
2018-09-06T18:47:20.746Z,98221.97
2018-09-06T18:49:49.187Z,98224.98
2018-09-06T18:52:17.702Z,98220.19
2018-09-06T18:54:46.411Z,98228.68
2018-09-06T18:57:14.795Z,98230.08
2018-09-06T18:59:43.929Z,98233.77
2018-09-06T19:02:12.686Z,98235.56
2018-09-06T19:04:41.202Z,98242.69
2018-09-06T19:07:09.908Z,98246.55
2018-09-06T19:09:38.562Z,98241.98
2018-09-06T19:12:07.567Z,98243.01
2018-09-06T19:14:36.187Z,98245.55
2018-09-06T19:17:04.796Z,98246.17
2018-09-06T19:19:33.586Z,98249.16
2018-09-06T19:22:02.634Z,98255.27
2018-09-06T19:24:31.351Z,98259.72
2018-09-06T19:27:00.197Z,98263.53
2018-09-06T19:29:31.360Z,98271.78
2018-09-06T19:32:00.034Z,98274.61
2018-09-06T19:34:28.523Z,98275.12
2018-09-06T19:36:57.264Z,98276.59
2018-09-06T19:39:26.670Z,98272.74
2018-09-06T19:41:55.027Z,98278.09
2018-09-06T19:44:23.375Z,98275.44
2018-09-06T19:46:52.552Z,98279.25
2018-09-06T19:49:20.887Z,98276.91
2018-09-06T19:51:50.177Z,98274.91
2018-09-06T19:54:18.722Z,98275.79
2018-09-06T19:56:47.223Z,98275.70
2018-09-06T19:59:15.519Z,98275.95
2018-09-06T20:01:44.019Z,98272.38
2018-09-06T20:04:12.366Z,98270.20
2018-09-06T20:06:42.094Z,98275.99
2018-09-06T20:09:10.873Z,98277.78
2018-09-06T20:11:40.104Z,98274.17
2018-09-06T20:14:08.480Z,98264.08
2018-09-06T20:16:36.817Z,98259.52
2018-09-06T20:19:05.294Z,98254.72
2018-09-06T20:21:33.653Z,98262.94
2018-09-06T20:24:02.065Z,98261.79
2018-09-06T20:26:32.063Z,98261.78
2018-09-06T20:29:00.415Z,98265.44
2018-09-06T20:31:28.790Z,98255.48
2018-09-06T20:33:57.157Z,98258.97
2018-09-06T20:36:25.667Z,98265.24
2018-09-06T20:39:16.597Z,98256.27
2018-09-06T20:41:45.088Z,98257.15
2018-09-06T20:44:13.364Z,98264.48
2018-09-06T20:46:41.703Z,98262.38
2018-09-06T20:49:16.826Z,98253.45
2018-09-06T20:51:45.239Z,98249.45
2018-09-06T20:54:13.712Z,98249.57
2018-09-06T20:56:42.171Z,98252.62
2018-09-06T20:59:10.616Z,98252.98
2018-09-06T21:01:39.130Z,98252.34
2018-09-06T21:04:07.675Z,98254.84
2018-09-06T21:06:36.036Z,98247.11
2018-09-06T21:09:05.691Z,98249.28
2018-09-06T21:11:34.152Z,98243.86
2018-09-06T21:14:02.524Z,98249.95
2018-09-06T21:16:31.149Z,98244.24
2018-09-06T21:18:59.717Z,98249.00
2018-09-06T21:21:28.240Z,98245.91
2018-09-06T21:23:56.678Z,98246.95
2018-09-06T21:26:25.365Z,98253.16
2018-09-06T21:28:53.698Z,98245.73
2018-09-06T21:31:22.098Z,98253.61
2018-09-06T21:33:50.450Z,98251.00
2018-09-06T21:36:18.894Z,98245.22
2018-09-06T21:38:47.281Z,98250.54
2018-09-06T21:41:15.676Z,98250.15
2018-09-06T21:43:44.100Z,98256.45
2018-09-06T21:46:12.431Z,98252.39
2018-09-06T21:48:40.784Z,98254.45
2018-09-06T21:51:09.184Z,98248.42
2018-09-06T21:53:37.527Z,98245.64
2018-09-06T21:56:05.857Z,98246.90
2018-09-06T21:58:34.241Z,98246.62
2018-09-06T22:01:02.647Z,98244.44
2018-09-06T22:03:36.304Z,98251.32
2018-09-06T22:06:04.709Z,98247.33
2018-09-06T22:08:48.966Z,98253.48
2018-09-06T22:11:17.396Z,98260.17
2018-09-06T22:13:45.786Z,98258.05
2018-09-06T22:16:14.217Z,98255.82
2018-09-06T22:18:42.604Z,98247.46
2018-09-06T22:21:11.001Z,98244.42
2018-09-06T22:23:39.384Z,98234.49
2018-09-06T22:26:07.825Z,98246.55
2018-09-06T22:28:36.187Z,98236.12
2018-09-06T22:31:04.948Z,98247.83
2018-09-06T22:33:33.345Z,98249.13
2018-09-06T22:36:01.678Z,98252.19
2018-09-06T22:38:30.067Z,98246.55
2018-09-06T22:40:58.415Z,98243.21
2018-09-06T22:43:26.796Z,98236.16
2018-09-06T22:45:55.202Z,98243.53
2018-09-06T22:48:23.566Z,98243.61
2018-09-06T22:50:51.935Z,98247.40
2018-09-06T22:53:20.278Z,98248.23
2018-09-06T22:55:48.688Z,98252.70
2018-09-06T22:58:17.045Z,98249.45
2018-09-06T23:00:45.474Z,98248.81
2018-09-06T23:03:19.089Z,98248.92
2018-09-06T23:05:47.541Z,98250.66
2018-09-06T23:08:15.883Z,98252.14
2018-09-06T23:10:44.212Z,98249.78
2018-09-06T23:13:12.596Z,98244.97
2018-09-06T23:15:40.961Z,98247.16
2018-09-06T23:18:09.515Z,98243.48
2018-09-06T23:20:37.890Z,98251.23
2018-09-06T23:23:06.266Z,98253.41
2018-09-06T23:25:34.653Z,98242.59
2018-09-06T23:28:03.012Z,98244.45
2018-09-06T23:30:31.493Z,98244.81
2018-09-06T23:32:59.852Z,98247.45
2018-09-06T23:35:28.169Z,98247.52
2018-09-06T23:37:56.523Z,98247.19
2018-09-06T23:40:24.860Z,98241.42
2018-09-06T23:42:53.336Z,98243.09
2018-09-06T23:45:21.743Z,98245.73
2018-09-06T23:47:50.170Z,98241.94
2018-09-06T23:50:18.555Z,98247.91
2018-09-06T23:52:46.966Z,98242.11
2018-09-06T23:55:15.336Z,98232.99
2018-09-06T23:57:43.725Z,98234.88
